Temp: 5.5°C   Baro: 1006.8mb
  Wind: 2.9mph   Dir: NNE (15°)
  Rain: 4.2mm (0.0mm/hr)
  Solar: 0W/m2  Hum: 87%

Historic data

Bath Spa Weather Station Historical Data
Daily Summary for September 11, 2019 Units:  Metric    English   Both
Daily Weekly Monthly Yearly Custom
  High: Low: Average:
Temperature: 7.7 °C 1.3 °C 4.7 °C
Dew Point: 4.9 °C 0.3 °C 3 °C
Humidity: 94% 80% 89%
Wind Speed: 19.6km/h 0km/h 4.3km/h
Wind Gust: 43.5km/h - -
Wind- - WSW
Pressure: 1008.4 hPa 1000.6 hPa -
Precipitation: 1.52 mm    
Historical Graphs
 
 
Tabular Data for September 11, 2019
Time Temperature Dew Point Pressure Wind Wind Speed Wind Gust Humidity Rainfall Rate (Hourly) solar
00:04 6.2 °C 4.8 °C 1008.4 hPa West 0.8 km/h 6.4 km/h 91% 0.25 mm 0 W/m2
00:09 6.2 °C 4.8 °C 1008.4 hPa West 1.9 km/h 8 km/h 91% 0.25 mm 0 W/m2
00:14 6.3 °C 4.8 °C 1008.4 hPa WSW 3.4 km/h 8 km/h 91% 0.25 mm 0 W/m2
00:19 6.3 °C 4.9 °C 1008.4 hPa WSW 5.6 km/h 12.9 km/h 91% 0.25 mm 0 W/m2
00:24 6.4 °C 4.9 °C 1008.4 hPa WSW 5.3 km/h 11.3 km/h 90% 0.25 mm 0 W/m2
00:29 6.4 °C 4.9 °C 1008.4 hPa West 5.6 km/h 11.3 km/h 90% 0.25 mm 0 W/m2
00:34 6.4 °C 4.8 °C 1008.4 hPa West 3.2 km/h 11.3 km/h 89.8% 0.25 mm 0 W/m2
00:39 6.3 °C 4.6 °C 1008.4 hPa West 0.3 km/h 9.7 km/h 89% 0.25 mm 0 W/m2
00:44 6.2 °C 4.6 °C 1008.4 hPa West 1.8 km/h 6.4 km/h 89% 0.25 mm 0 W/m2
00:49 6.1 °C 4.4 °C 1008.4 hPa West 1 km/h 4.8 km/h 89% 0.25 mm 0 W/m2
00:54 6 °C 4.3 °C 1008.4 hPa West 1.3 km/h 6.4 km/h 89% 0 mm 0 W/m2
00:59 5.8 °C 4.2 °C 1008.4 hPa West 1.8 km/h 6.4 km/h 89% 0 mm 0 W/m2
01:04 5.8 °C 4.1 °C 1008.4 hPa West 1.3 km/h 4.8 km/h 89% 0 mm 0 W/m2
01:09 5.7 °C 4 °C 1008.4 hPa West 1 km/h 3.2 km/h 89% 0 mm 0 W/m2
01:14 5.6 °C 3.9 °C 1008.4 hPa West 2.4 km/h 4.8 km/h 89% 0 mm 0 W/m2
01:19 5.6 °C 3.9 °C 1008.4 hPa West 0.3 km/h 4.8 km/h 89% 0 mm 0 W/m2
01:24 5.6 °C 4 °C 1008.4 hPa West 3.9 km/h 9.7 km/h 89.8% 0 mm 0 W/m2
01:29 5.6 °C 4.1 °C 1008.4 hPa West 2.4 km/h 9.7 km/h 90% 0 mm 0 W/m2
01:34 5.6 °C 4.1 °C 1008.4 hPa Calm   9.7 km/h 90% 0 mm 0 W/m2
01:39 5.5 °C 4 °C 1008.4 hPa Calm   4.8 km/h 90% 0 mm 0 W/m2
01:44 5.4 °C 3.9 °C 1008.4 hPa West 1.3 km/h 9.7 km/h 90% 0 mm 0 W/m2
01:49 5.4 °C 3.9 °C 1008.4 hPa West 0.3 km/h 3.2 km/h 90% 0 mm 0 W/m2
01:54 5.4 °C 3.9 °C 1008.4 hPa Calm     90% 0 mm 0 W/m2
01:59 5.4 °C 3.9 °C 1008.4 hPa Calm     90% 0 mm 0 W/m2
02:04 5.3 °C 3.8 °C 1008.4 hPa Calm     90% 0 mm 0 W/m2
02:09 5.3 °C 3.8 °C 1008.4 hPa Calm     90% 0 mm 0 W/m2
02:14 5.2 °C 3.7 °C 1008.4 hPa Calm     90% 0 mm 0 W/m2
02:19 5 °C 3.5 °C 1008.4 hPa Calm     90% 0 mm 0 W/m2
02:24 4.8 °C 3.3 °C 1008.4 hPa Calm     90% 0 mm 0 W/m2
02:29 4.6 °C 3.2 °C 1008.4 hPa West 0.5 km/h 1.6 km/h 90% 0 mm 0 W/m2
02:34 4.5 °C 3 °C 1008.4 hPa Calm   1.6 km/h 90% 0 mm 0 W/m2
02:39 4.4 °C 3.1 °C 1008.4 hPa West 2.9 km/h 6.4 km/h 90.8% 0 mm 0 W/m2
02:44 4.4 °C 3.1 °C 1008.4 hPa West 2.4 km/h 9.7 km/h 91% 0 mm 0 W/m2
02:49 4.4 °C 3.1 °C 1008.4 hPa West 1.8 km/h 6.4 km/h 91% 0 mm 0 W/m2
02:54 4.3 °C 3.1 °C 1008.4 hPa Calm   4.8 km/h 91% 0 mm 0 W/m2
02:59 4.3 °C 3 °C 1008.4 hPa West 1.9 km/h 4.8 km/h 91% 0 mm 0 W/m2
03:04 4.3 °C 2.9 °C 1008.4 hPa West 0.8 km/h 3.2 km/h 91% 0 mm 0 W/m2
03:09 4.2 °C 2.9 °C 1008.4 hPa West 1.6 km/h 4.8 km/h 91% 0 mm 0 W/m2
03:14 4.3 °C 3 °C 1008.4 hPa West 1.3 km/h 4.8 km/h 91.4% 0 mm 0 W/m2
03:19 4.2 °C 3 °C 1008.4 hPa West 0.6 km/h 4.8 km/h 92% 0 mm 0 W/m2
03:24 4.1 °C 2.9 °C 1008.4 hPa West 0.8 km/h 4.8 km/h 92% 0 mm 0 W/m2
03:29 4.1 °C 2.9 °C 1008.4 hPa West 0.3 km/h 3.2 km/h 92% 0 mm 0 W/m2
03:34 4.1 °C 2.9 °C 1008.4 hPa West 0.3 km/h 3.2 km/h 92% 0 mm 0 W/m2
03:39 4.2 °C 2.9 °C 1008 hPa West 0.3 km/h 1.6 km/h 92% 0 mm 0 W/m2
03:44 4.2 °C 3 °C 1008.4 hPa West 1 km/h 6.4 km/h 92% 0 mm 0 W/m2
03:49 4.3 °C 3.1 °C 1008 hPa West 2.3 km/h 6.4 km/h 92% 0 mm 0 W/m2
03:54 4.4 °C 3.2 °C 1008 hPa West 1 km/h 6.4 km/h 92% 0 mm 0 W/m2
03:59 4.4 °C 3.2 °C 1008 hPa Calm   6.4 km/h 92% 0 mm 0 W/m2
04:04 4.3 °C 3.2 °C 1008 hPa Calm   6.4 km/h 92% 0 mm 0 W/m2
04:09 4.3 °C 3.1 °C 1008 hPa West 0.8 km/h 4.8 km/h 92% 0 mm 0 W/m2
04:14 4.3 °C 3.1 °C 1007.7 hPa West 5.8 km/h 9.7 km/h 92% 0 mm 0 W/m2
04:19 4.3 °C 3.1 °C 1007.7 hPa Calm   9.7 km/h 92% 0 mm 0 W/m2
04:24 4.2 °C 3 °C 1008 hPa West 1.3 km/h 6.4 km/h 92% 0 mm 0 W/m2
04:29 4.2 °C 3 °C 1007.7 hPa Calm   3.2 km/h 92% 0 mm 0 W/m2
04:34 4.2 °C 3 °C 1007.7 hPa West 0.6 km/h 3.2 km/h 92% 0 mm 0 W/m2
04:39 4.2 °C 3 °C 1007.7 hPa West 1.9 km/h 8 km/h 92% 0 mm 0 W/m2
04:44 4.3 °C 3.1 °C 1007.7 hPa WSW 2.7 km/h 9.7 km/h 92% 0 mm 0 W/m2
04:49 4.3 °C 3.1 °C 1007.3 hPa SW 1.3 km/h 6.4 km/h 92% 0 mm 0 W/m2
04:54 4.3 °C 3.1 °C 1007.3 hPa Calm   1.6 km/h 92% 0 mm 0 W/m2
04:59 4.2 °C 3 °C 1007.3 hPa SW 1 km/h 4.8 km/h 92% 0 mm 0 W/m2
05:04 4.2 °C 3 °C 1007.3 hPa SW 5.1 km/h 9.7 km/h 92% 0 mm 0 W/m2
05:09 4.2 °C 3.1 °C 1007.3 hPa SW 2.1 km/h 8 km/h 92% 0 mm 0 W/m2
05:14 4.2 °C 3.1 °C 1007.3 hPa SW 1.6 km/h 6.4 km/h 92% 0 mm 0 W/m2
05:19 4.2 °C 3 °C 1007 hPa SW 2.9 km/h 6.4 km/h 92% 0 mm 0 W/m2
05:24 4.2 °C 3 °C 1007 hPa WSW 3.5 km/h 9.7 km/h 92% 0 mm 0 W/m2
05:29 4.3 °C 3.1 °C 1007 hPa WSW 2.1 km/h 6.4 km/h 91.4% 0 mm 0 W/m2
05:34 4.3 °C 3 °C 1007 hPa WSW 2.4 km/h 6.4 km/h 91% 0 mm 0 W/m2
05:39 4.3 °C 2.9 °C 1007 hPa WSW 3.5 km/h 6.4 km/h 91% 0 mm 0 W/m2
05:44 4.2 °C 2.9 °C 1006.7 hPa WSW 2.3 km/h 6.4 km/h 91% 0 mm 0 W/m2
05:49 4.2 °C 2.9 °C 1006.7 hPa WSW 2.1 km/h 6.4 km/h 91% 0 mm 0 W/m2
05:54 4.2 °C 2.9 °C 1006.7 hPa WSW 1 km/h 4.8 km/h 91% 0 mm 0 W/m2
05:59 4.2 °C 2.9 °C 1006.7 hPa Calm   6.4 km/h 91% 0 mm 0 W/m2
06:04 4.3 °C 2.9 °C 1006.3 hPa WSW 7.6 km/h 9.7 km/h 91% 0 mm 0 W/m2
06:09 4.6 °C 3.2 °C 1006.3 hPa SW 6.4 km/h 16.1 km/h 91% 0 mm 0 W/m2
06:14 4.8 °C 3.5 °C 1006.3 hPa SSW 10.3 km/h 16.1 km/h 91% 0 mm 0 W/m2
06:19 4.9 °C 3.6 °C 1006.3 hPa SW 7.2 km/h 12.9 km/h 91% 0 mm 0 W/m2
06:24 4.9 °C 3.6 °C 1006.3 hPa SSW 4.7 km/h 12.9 km/h 90.6% 0 mm 0 W/m2
06:29 5.1 °C 3.6 °C 1006.3 hPa SSW 4.8 km/h 12.9 km/h 90.3% 0 mm 0 W/m2
06:34 5.1 °C 3.6 °C 1006.3 hPa SSW 5.3 km/h 11.3 km/h 90% 0 mm 0 W/m2
06:39 5.1 °C 3.6 °C 1006.3 hPa SSW 2.7 km/h 14.5 km/h 90% 0 mm 0 W/m2
06:44 5 °C 3.3 °C 1006 hPa SSW 7.7 km/h 19.3 km/h 89.2% 0 mm 0 W/m2
06:49 5 °C 3.3 °C 1006 hPa SSW 5.8 km/h 17.7 km/h 89% 0 mm 0 W/m2
06:54 5.1 °C 3.4 °C 1006 hPa SSW 6 km/h 12.9 km/h 89% 0 mm 0 W/m2
06:59 5.1 °C 3.4 °C 1006 hPa SSW 5.3 km/h 11.3 km/h 89% 0 mm 0 W/m2
07:04 5.1 °C 3.3 °C 1006 hPa South 5.5 km/h 16.1 km/h 89% 0 mm 0 W/m2
07:09 5 °C 3.3 °C 1006 hPa South 9.2 km/h 19.3 km/h 89% 0 mm 0 W/m2
07:14 4.9 °C 3.2 °C 1006 hPa South 3.9 km/h 19.3 km/h 89% 0 mm 0 W/m2
07:19 5 °C 3.3 °C 1006 hPa South 5.6 km/h 12.9 km/h 89% 0 mm 0 W/m2
07:24 5.1 °C 3.4 °C 1005.6 hPa South 10.9 km/h 19.3 km/h 89% 0 mm 0 W/m2
07:29 5.1 °C 3.4 °C 1005.6 hPa SSW 10 km/h 20.9 km/h 89% 0 mm 0 W/m2
07:34 5.1 °C 3.4 °C 1005.6 hPa SSW 12.6 km/h 29 km/h 89% 0 mm 0 W/m2
07:39 5.2 °C 3.4 °C 1005.6 hPa South 8 km/h 29 km/h 89% 0 mm 0 W/m2
07:43 5.2 °C 3.4 °C 1005.6 hPa South 12.4 km/h 30.6 km/h 88.5% 0 mm 0 W/m2
07:49 5.1 °C 3.3 °C 1005.6 hPa South 4.5 km/h 9.7 km/h 88% 0 mm 0 W/m2
07:54 5.1 °C 3.3 °C 1005.6 hPa South 1.9 km/h 11.3 km/h 88% 0 mm 0 W/m2
07:59 5.1 °C 3.3 °C 1005.6 hPa South 3.5 km/h 11.3 km/h 88% 0 mm 0 W/m2
08:04 5.1 °C 3.3 °C 1005.6 hPa South 2.7 km/h 12.9 km/h 88% 0 mm 5 W/m2
08:09 5.1 °C 3.3 °C 1005.6 hPa South 6.1 km/h 14.5 km/h 88% 0 mm 7 W/m2
08:14 5.1 °C 3.3 °C 1005.3 hPa South 0.3 km/h 14.5 km/h 88% 0 mm 9 W/m2
08:19 5 °C 3.2 °C 1005.3 hPa South 2.3 km/h 6.4 km/h 88% 0 mm 11 W/m2
08:24 4.8 °C 3 °C 1005.3 hPa South 2.9 km/h 6.4 km/h 88% 0 mm 12 W/m2
08:29 4.7 °C 2.9 °C 1005.3 hPa South 3.4 km/h 9.7 km/h 88% 0 mm 12 W/m2
08:34 4.7 °C 2.9 °C 1005.3 hPa South 0.6 km/h 3.2 km/h 88% 0 mm 14 W/m2
08:39 4.7 °C 2.9 °C 1005.3 hPa SSW 1.9 km/h 8 km/h 88% 0 mm 16 W/m2
08:44 4.9 °C 3.1 °C 1005 hPa SW 5.5 km/h 12.9 km/h 88% 0 mm 23 W/m2
08:49 5.1 °C 3.3 °C 1005 hPa SW 7.1 km/h 12.9 km/h 88% 0 mm 30 W/m2
08:54 5.1 °C 3.3 °C 1005 hPa SSW 7.1 km/h 12.9 km/h 88% 0 mm 37 W/m2
08:59 5.3 °C 3.4 °C 1004.6 hPa SSW 4 km/h 12.9 km/h 88% 0 mm 53 W/m2
09:04 5.4 °C 3.4 °C 1004.6 hPa SSW 12.9 km/h 19.3 km/h 87.4% 0 mm 56 W/m2
09:09 5.5 °C 3.5 °C 1004.6 hPa SSW 7.6 km/h 19.3 km/h 87% 0 mm 49 W/m2
09:14 5.7 °C 3.7 °C 1004.6 hPa SSW 1.6 km/h 8 km/h 87% 0 mm 33 W/m2
09:19 5.8 °C 3.7 °C 1004.6 hPa SSW 6.9 km/h 11.3 km/h 86% 0 mm 40 W/m2
09:24 5.9 °C 3.7 °C 1004.6 hPa SSW 8.7 km/h 16.1 km/h 85.6% 0 mm 39 W/m2
09:29 6 °C 3.7 °C 1004.6 hPa SW 6.4 km/h 16.1 km/h 85% 0 mm 37 W/m2
09:34 6.1 °C 3.8 °C 1004.6 hPa South 1.4 km/h 9.7 km/h 85% 0 mm 37 W/m2
09:39 6 °C 3.6 °C 1004.6 hPa SSW 3.2 km/h 11.3 km/h 84.3% 0 mm 39 W/m2
09:44 6 °C 3.5 °C 1004.6 hPa SW 5.8 km/h 14.5 km/h 84% 0 mm 58 W/m2
09:49 6.2 °C 3.7 °C 1004.3 hPa SW 11.9 km/h 19.3 km/h 84% 0 mm 62 W/m2
09:54 6.4 °C 3.7 °C 1004.3 hPa SW 10.3 km/h 27.4 km/h 83% 0 mm 58 W/m2
09:59 6.7 °C 4 °C 1004.3 hPa SW 0.3 km/h 4.8 km/h 83% 0 mm 58 W/m2
10:04 6.9 °C 4.1 °C 1003.9 hPa SSE 9.3 km/h 16.1 km/h 82.4% 0 mm 76 W/m2
10:09 6.8 °C 3.9 °C 1003.9 hPa South 3.5 km/h 19.3 km/h 81.8% 0 mm 69 W/m2
10:14 7.1 °C 4.3 °C 1003.6 hPa Calm   4.8 km/h 82.5% 0 mm 67 W/m2
10:19 7.1 °C 4.2 °C 1003.6 hPa SW 4.5 km/h 14.5 km/h 82% 0 mm 83 W/m2
10:24 7.1 °C 4.2 °C 1003.3 hPa SW 12.9 km/h 22.5 km/h 81.6% 0 mm 109 W/m2
10:29 7.3 °C 4.3 °C 1003.3 hPa SSW 15.1 km/h 30.6 km/h 81.6% 0 mm 125 W/m2
10:34 7.4 °C 4.4 °C 1003.3 hPa SSW 6.8 km/h 14.5 km/h 81% 0 mm 134 W/m2
10:39 7.6 °C 4.5 °C 1002.9 hPa SW 5.3 km/h 20.9 km/h 81% 0 mm 148 W/m2
10:44 7.7 °C 4.6 °C 1002.9 hPa SSW 15.4 km/h 29 km/h 80.6% 0 mm 146 W/m2
10:49 7.7 °C 4.5 °C 1002.9 hPa SW 9.7 km/h 29 km/h 80% 0 mm 123 W/m2
10:54 7.7 °C 4.6 °C 1002.9 hPa SW 15.4 km/h 29 km/h 80.4% 0 mm 113 W/m2
10:59 7.6 °C 4.4 °C 1002.9 hPa SSW 17.1 km/h 43.5 km/h 80% 0 mm 72 W/m2
11:04 7.4 °C 4.2 °C 1002.9 hPa SSW 6.8 km/h 19.3 km/h 80% 0 mm 60 W/m2
11:09 7.3 °C 4.2 °C 1002.6 hPa SSW 7.4 km/h 19.3 km/h 80.6% 0 mm 74 W/m2
11:14 7.2 °C 4.2 °C 1002.3 hPa SSW 13.5 km/h 25.7 km/h 81% 0 mm 84 W/m2
11:19 7.1 °C 4.1 °C 1002.3 hPa SW 14.5 km/h 35.4 km/h 81% 0 mm 79 W/m2
11:23 7.2 °C 4.2 °C 1002.3 hPa SW 5.6 km/h 19.3 km/h 81% 0 mm 47 W/m2
11:29 7.1 °C 4.1 °C 1002.3 hPa SW 4.5 km/h 12.9 km/h 81% 0 mm 39 W/m2
11:34 7.1 °C 4.1 °C 1002.3 hPa SSW 6.4 km/h 16.1 km/h 81% 0 mm 98 W/m2
11:39 7.1 °C 4.1 °C 1002.3 hPa SSW 11.9 km/h 27.4 km/h 81% 0 mm 116 W/m2
11:44 7.1 °C 4.2 °C 1001.9 hPa South 9.7 km/h 25.7 km/h 82% 0.25 mm 128 W/m2
11:49 6.8 °C 4 °C 1001.9 hPa SW 8.5 km/h 37 km/h 82.2% 0.25 mm 165 W/m2
11:54 6.8 °C 4.2 °C 1001.9 hPa SSW 8 km/h 37 km/h 83% 0.25 mm 167 W/m2
11:59 6.8 °C 4.2 °C 1001.9 hPa SW 3.5 km/h 37 km/h 83.3% 0.25 mm 95 W/m2
12:04 6.8 °C 4.3 °C 1001.6 hPa SSW 5.1 km/h 17.7 km/h 84% 0.25 mm 188 W/m2
12:09 6.8 °C 4.2 °C 1001.2 hPa SSW 6.6 km/h 17.7 km/h 83.6% 0.25 mm 146 W/m2
12:14 6.9 °C 4.4 °C 1001.2 hPa SSW 5.1 km/h 17.7 km/h 83.8% 0.25 mm 248 W/m2
12:19 7.2 °C 4.6 °C 1001.2 hPa SSW 9 km/h 19.3 km/h 83.2% 0.25 mm 207 W/m2
12:24 7.3 °C 4.7 °C 1001.2 hPa South 6.1 km/h 19.3 km/h 83% 0.25 mm 213 W/m2
12:29 7.2 °C 4.5 °C 1001.2 hPa SSW 7.1 km/h 22.5 km/h 83% 0.25 mm 290 W/m2
12:34 7.4 °C 4.7 °C 1001.2 hPa SW 9.3 km/h 24.1 km/h 83% 0.25 mm 315 W/m2
12:39 7.4 °C 4.8 °C 1001.2 hPa SSW 6.8 km/h 24.1 km/h 83% 0.25 mm 116 W/m2
12:44 7.3 °C 4.6 °C 1001.2 hPa SSW 7.6 km/h 33.8 km/h 83% 0.25 mm 74 W/m2
12:49 7.2 °C 4.5 °C 1000.9 hPa South 14.8 km/h 33.8 km/h 83% 0 mm 151 W/m2
12:54 7.2 °C 4.5 °C 1000.9 hPa SW 11.9 km/h 33.8 km/h 83% 0 mm 125 W/m2
12:59 7.2 °C 4.5 °C 1000.9 hPa SW 16.4 km/h 33.8 km/h 83% 0 mm 107 W/m2
13:04 7.1 °C 4.6 °C 1000.9 hPa SW 11.7 km/h 33.8 km/h 83.5% 0 mm 118 W/m2
13:09 7.1 °C 4.5 °C 1000.9 hPa SW 9.8 km/h 19.3 km/h 83.6% 0 mm 118 W/m2
13:14 7.1 °C 4.4 °C 1000.9 hPa WSW 10.6 km/h 25.7 km/h 83.2% 0 mm 243 W/m2
13:19 7.2 °C 4.4 °C 1000.6 hPa WSW 14.6 km/h 22.5 km/h 83% 0 mm 127 W/m2
13:24 7.1 °C 4.3 °C 1000.6 hPa WSW 9.5 km/h 30.6 km/h 82.8% 0 mm 167 W/m2
13:28 7.2 °C 4.6 °C 1000.6 hPa SW 6.8 km/h 17.7 km/h 83% 0 mm 216 W/m2
13:34 7.3 °C 4.4 °C 1000.6 hPa WSW 8.7 km/h 17.7 km/h 82.2% 0 mm 163 W/m2
13:39 7.3 °C 4.4 °C 1000.6 hPa WSW 11.7 km/h 24.1 km/h 82% 0 mm 165 W/m2
13:44 7.3 °C 4.4 °C 1000.6 hPa WSW 9 km/h 16.1 km/h 82% 0 mm 156 W/m2
13:49 7.3 °C 4.3 °C 1000.6 hPa WSW 10.3 km/h 16.1 km/h 82% 0 mm 62 W/m2
13:54 7.2 °C 4.2 °C 1000.6 hPa WSW 13.2 km/h 17.7 km/h 81% 0 mm 46 W/m2
13:59 7.1 °C 4.1 °C 1000.6 hPa WSW 15.8 km/h 20.9 km/h 81.2% 0 mm 37 W/m2
14:04 7 °C 4.1 °C 1000.9 hPa WSW 11.6 km/h 32.2 km/h 82% 0 mm 16 W/m2
14:09 6.5 °C 3.8 °C 1000.9 hPa West 16.1 km/h 32.2 km/h 83% 0.25 mm 28 W/m2
14:14 6.1 °C 3.6 °C 1000.9 hPa West 10.9 km/h 19.3 km/h 84.4% 0.51 mm 32 W/m2
14:19 5.8 °C 3.6 °C 1000.9 hPa West 10 km/h 30.6 km/h 85.4% 0.51 mm 25 W/m2
14:24 5.8 °C 3.6 °C 1000.9 hPa West 4 km/h 12.9 km/h 86% 0.51 mm 46 W/m2
14:29 5.8 °C 3.8 °C 1001.2 hPa WSW 8.9 km/h 14.5 km/h 87% 0.51 mm 46 W/m2
14:34 5.7 °C 3.8 °C 1001.2 hPa WSW 6.6 km/h 14.5 km/h 87.4% 0.51 mm 28 W/m2
14:39 5.7 °C 3.9 °C 1001.2 hPa WSW 4.2 km/h 9.7 km/h 88% 0.51 mm 37 W/m2
14:43 5.7 °C 3.9 °C 1001.2 hPa WSW 6.4 km/h 11.3 km/h 88.3% 0.51 mm 39 W/m2
14:49 5.7 °C 4 °C 1001.2 hPa WSW 13.8 km/h 30.6 km/h 89% 0.51 mm 18 W/m2
14:54 5.4 °C 3.7 °C 1001.2 hPa West 12.2 km/h 30.6 km/h 89% 1.02 mm 12 W/m2
14:59 5.1 °C 3.3 °C 1001.2 hPa West 19.6 km/h 38.6 km/h 89% 1.27 mm 21 W/m2
15:04 4.9 °C 3.2 °C 1001.2 hPa West 6.6 km/h 20.9 km/h 89% 1.52 mm 30 W/m2
15:09 4.9 °C 3.4 °C 1001.2 hPa West 7.1 km/h 29 km/h 90% 1.27 mm 28 W/m2
15:14 4.8 °C 3.3 °C 1001.2 hPa West 8.7 km/h 25.7 km/h 90% 1.02 mm 28 W/m2
15:18 4.8 °C 3.3 °C 1001.2 hPa West 11.3 km/h 20.9 km/h 90% 1.02 mm 26 W/m2
15:24 4.8 °C 3.3 °C 1001.2 hPa West 10.9 km/h 20.9 km/h 90% 1.02 mm 23 W/m2
15:29 4.7 °C 3.3 °C 1001.2 hPa WNW 13.5 km/h 29 km/h 90.4% 1.02 mm 11 W/m2
15:34 4.7 °C 3.4 °C 1001.2 hPa WNW 10.1 km/h 29 km/h 91% 1.02 mm 7 W/m2
15:39 4.7 °C 3.4 °C 1001.2 hPa WNW 5 km/h 14.5 km/h 91% 1.02 mm 7 W/m2
15:44 4.8 °C 3.5 °C 1001.2 hPa WNW 3.9 km/h 9.7 km/h 91% 0.76 mm 9 W/m2
15:49 4.7 °C 3.4 °C 1001.2 hPa WNW 6.6 km/h 12.9 km/h 91% 0.76 mm 11 W/m2
15:54 4.7 °C 3.4 °C 1001.2 hPa West 5.1 km/h 12.9 km/h 91% 0.51 mm 7 W/m2
15:59 4.7 °C 3.4 °C 1001.2 hPa West 5.8 km/h 12.9 km/h 91% 0.25 mm 5 W/m2
16:04 4.7 °C 3.4 °C 1001.2 hPa West 1.4 km/h 8 km/h 91% 0.25 mm 5 W/m2
16:09 4.6 °C 3.3 °C 1001.2 hPa West 3.4 km/h 9.7 km/h 91% 0 mm 0 W/m2
16:14 4.6 °C 3.2 °C 1001.6 hPa West 3.7 km/h 8 km/h 91% 0 mm 0 W/m2
16:19 4.4 °C 3.1 °C 1001.6 hPa West 6 km/h 11.3 km/h 91% 0 mm 0 W/m2
16:23 4.3 °C 3.1 °C 1001.6 hPa West 5.8 km/h 9.7 km/h 91% 0 mm 0 W/m2
16:29 4.3 °C 3 °C 1001.6 hPa West 4.3 km/h 8 km/h 91% 0 mm 0 W/m2
16:34 4.2 °C 2.9 °C 1001.9 hPa West 4 km/h 8 km/h 91% 0 mm 0 W/m2
16:39 4.2 °C 2.9 °C 1001.9 hPa West 5.8 km/h 9.7 km/h 91% 0 mm 0 W/m2
16:44 4.1 °C 2.8 °C 1001.9 hPa WNW 7.1 km/h 11.3 km/h 91% 0 mm 0 W/m2
16:49 4.1 °C 2.8 °C 1001.9 hPa WNW 3.5 km/h 8 km/h 91% 0 mm 0 W/m2
16:54 4 °C 2.7 °C 1001.9 hPa WNW 4.7 km/h 8 km/h 91% 0 mm 0 W/m2
16:59 4 °C 2.7 °C 1001.9 hPa WNW 4.3 km/h 8 km/h 91% 0 mm 0 W/m2
17:04 3.9 °C 2.6 °C 1001.9 hPa WNW 5.3 km/h 9.7 km/h 91% 0 mm 0 W/m2
17:09 3.9 °C 2.7 °C 1001.9 hPa WNW 4.5 km/h 8 km/h 91.6% 0 mm 0 W/m2
17:14 3.9 °C 2.7 °C 1002.3 hPa WNW 6.3 km/h 11.3 km/h 92% 0 mm 0 W/m2
17:19 3.8 °C 2.7 °C 1002.3 hPa WNW 5.1 km/h 11.3 km/h 92% 0 mm 0 W/m2
17:24 3.8 °C 2.6 °C 1002.3 hPa WNW 3.7 km/h 9.7 km/h 92% 0 mm 0 W/m2
17:29 3.8 °C 2.6 °C 1002.3 hPa WNW 1.9 km/h 6.4 km/h 92% 0 mm 0 W/m2
17:34 3.7 °C 2.5 °C 1002.3 hPa WNW 3.1 km/h 9.7 km/h 92% 0 mm 0 W/m2
17:39 3.7 °C 2.5 °C 1002.3 hPa WNW 5.5 km/h 9.7 km/h 92% 0 mm 0 W/m2
17:44 3.8 °C 2.6 °C 1002.3 hPa WNW 1.4 km/h 8 km/h 92% 0 mm 0 W/m2
17:49 3.8 °C 2.6 °C 1002.6 hPa WNW 1.8 km/h 6.4 km/h 92% 0 mm 0 W/m2
17:54 3.7 °C 2.5 °C 1002.6 hPa WNW 5.1 km/h 9.7 km/h 92% 0 mm 0 W/m2
17:59 3.6 °C 2.4 °C 1002.6 hPa WNW 4 km/h 9.7 km/h 92% 0 mm 0 W/m2
18:04 3.6 °C 2.4 °C 1002.6 hPa WNW 1.6 km/h 8 km/h 92% 0 mm 0 W/m2
18:09 3.6 °C 2.4 °C 1002.6 hPa WNW 2.9 km/h 6.4 km/h 92% 0 mm 0 W/m2
18:14 3.6 °C 2.4 °C 1002.6 hPa WNW 4.3 km/h 8 km/h 92% 0 mm 0 W/m2
18:19 3.6 °C 2.4 °C 1002.6 hPa WNW 4.7 km/h 9.7 km/h 92% 0 mm 0 W/m2
18:24 3.6 °C 2.4 °C 1002.9 hPa WNW 3.7 km/h 9.7 km/h 92% 0 mm 0 W/m2
18:29 3.6 °C 2.4 °C 1002.9 hPa WNW 4 km/h 6.4 km/h 92% 0 mm 0 W/m2
18:34 3.6 °C 2.4 °C 1002.9 hPa WNW 5.5 km/h 8 km/h 92% 0 mm 0 W/m2
18:39 3.5 °C 2.3 °C 1002.9 hPa WNW 4 km/h 8 km/h 92% 0 mm 0 W/m2
18:44 3.6 °C 2.3 °C 1002.9 hPa WNW 6.4 km/h 9.7 km/h 92% 0 mm 0 W/m2
18:49 3.6 °C 2.4 °C 1002.9 hPa WNW 3.9 km/h 9.7 km/h 92% 0 mm 0 W/m2
18:54 3.6 °C 2.3 °C 1002.9 hPa WNW 3.1 km/h 8 km/h 92% 0 mm 0 W/m2
18:58 3.4 °C 2.2 °C 1002.9 hPa WNW 3.9 km/h 8 km/h 92% 0 mm 0 W/m2
19:04 3.3 °C 2.2 °C 1002.9 hPa WNW 1.9 km/h 6.4 km/h 92% 0 mm 0 W/m2
19:09 3.3 °C 2.1 °C 1003.3 hPa WNW 3.5 km/h 6.4 km/h 92% 0 mm 0 W/m2
19:14 3.3 °C 2.1 °C 1003.3 hPa WNW 3.4 km/h 6.4 km/h 92% 0 mm 0 W/m2
19:19 3.3 °C 2.1 °C 1003.3 hPa WNW 3.5 km/h 8 km/h 92% 0 mm 0 W/m2
19:24 3.3 °C 2.1 °C 1003.3 hPa WNW 3.5 km/h 6.4 km/h 92% 0 mm 0 W/m2
19:29 3.3 °C 2.1 °C 1003.3 hPa WNW 1.6 km/h 6.4 km/h 92% 0 mm 0 W/m2
19:34 3.3 °C 2.2 °C 1003.3 hPa WNW 0.3 km/h 1.6 km/h 92% 0 mm 0 W/m2
19:39 3.3 °C 2.1 °C 1003.3 hPa Calm   1.6 km/h 92% 0 mm 0 W/m2
19:44 3.1 °C 1.9 °C 1003.3 hPa WNW 1.3 km/h 9.7 km/h 92% 0 mm 0 W/m2
19:49 3.1 °C 1.9 °C 1003.3 hPa Calm   9.7 km/h 92% 0 mm 0 W/m2
19:54 3 °C 1.8 °C 1003.6 hPa Calm   9.7 km/h 92% 0 mm 0 W/m2
19:59 2.8 °C 1.6 °C 1003.6 hPa WNW 0.3 km/h 9.7 km/h 92% 0 mm 0 W/m2
20:04 2.7 °C 1.5 °C 1003.6 hPa Calm     92% 0 mm 0 W/m2
20:09 2.7 °C 1.5 °C 1003.6 hPa Calm   3.2 km/h 92% 0 mm 0 W/m2
20:14 2.6 °C 1.4 °C 1003.6 hPa Calm     92% 0 mm 0 W/m2
20:19 2.5 °C 1.3 °C 1003.6 hPa Calm   1.6 km/h 92% 0 mm 0 W/m2
20:24 2.4 °C 1.2 °C 1003.6 hPa WNW 0.3 km/h 1.6 km/h 92% 0 mm 0 W/m2
20:29 2.3 °C 1.1 °C 1003.6 hPa WNW 0.6 km/h 3.2 km/h 92% 0 mm 0 W/m2
20:33 2.3 °C 1.1 °C 1003.9 hPa Calm   3.2 km/h 92% 0 mm 0 W/m2
20:39 2.3 °C 1.1 °C 1003.9 hPa Calm   1.6 km/h 92% 0 mm 0 W/m2
20:44 2.3 °C 1.1 °C 1003.9 hPa WNW 0.6 km/h 3.2 km/h 92% 0 mm 0 W/m2
20:49 2.3 °C 1.1 °C 1003.9 hPa Calm   3.2 km/h 92% 0 mm 0 W/m2
20:54 2.3 °C 1.1 °C 1003.6 hPa Calm     92.2% 0 mm 0 W/m2
20:59 2.2 °C 1.2 °C 1003.6 hPa Calm     93% 0 mm 0 W/m2
21:04 2.1 °C 1.1 °C 1003.6 hPa Calm     93% 0 mm 0 W/m2
21:09 1.9 °C 0.8 °C 1003.6 hPa Calm     92.4% 0 mm 0 W/m2
21:14 1.8 °C 0.7 °C 1003.6 hPa Calm     92.6% 0 mm 0 W/m2
21:19 1.7 °C 0.5 °C 1003.6 hPa Calm     92% 0 mm 0 W/m2
21:24 1.7 °C 0.5 °C 1003.6 hPa Calm     92% 0 mm 0 W/m2
21:29 1.6 °C 0.6 °C 1003.6 hPa Calm     92.8% 0 mm 0 W/m2
21:34 1.6 °C 0.6 °C 1003.6 hPa Calm     93% 0 mm 0 W/m2
21:39 1.4 °C 0.4 °C 1003.6 hPa Calm     93% 0 mm 0 W/m2
21:44 1.4 °C 0.4 °C 1003.6 hPa Calm     93% 0 mm 0 W/m2
21:49 1.4 °C 0.4 °C 1003.6 hPa Calm     93% 0 mm 0 W/m2
21:54 1.6 °C 0.6 °C 1003.6 hPa Calm     93% 0 mm 0 W/m2
21:59 1.7 °C 0.7 °C 1003.6 hPa WNW 2.6 km/h 4.8 km/h 93% 0 mm 0 W/m2
22:04 1.8 °C 0.8 °C 1003.9 hPa WNW 2.6 km/h 4.8 km/h 93% 0 mm 0 W/m2
22:09 1.8 °C 0.8 °C 1003.6 hPa Calm   3.2 km/h 93% 0 mm 0 W/m2
22:14 1.7 °C 0.7 °C 1003.9 hPa Calm   1.6 km/h 93% 0 mm 0 W/m2
22:19 1.7 °C 0.7 °C 1003.9 hPa Calm   1.6 km/h 93% 0 mm 0 W/m2
22:24 1.6 °C 0.6 °C 1003.9 hPa Calm     93% 0 mm 0 W/m2
22:29 1.6 °C 0.6 °C 1003.6 hPa Calm     93% 0 mm 0 W/m2
22:34 1.6 °C 0.6 °C 1003.6 hPa Calm     93% 0 mm 0 W/m2
22:39 1.5 °C 0.5 °C 1003.9 hPa Calm     93% 0 mm 0 W/m2
22:44 1.4 °C 0.4 °C 1003.6 hPa Calm     93% 0 mm 0 W/m2
22:49 1.4 °C 0.4 °C 1003.6 hPa Calm     93% 0 mm 0 W/m2
22:54 1.4 °C 0.4 °C 1003.6 hPa Calm     93% 0 mm 0 W/m2
22:59 1.5 °C 0.5 °C 1003.6 hPa Calm     93% 0 mm 0 W/m2
23:04 1.4 °C 0.4 °C 1003.6 hPa WNW 0.6 km/h 3.2 km/h 93% 0 mm 0 W/m2
23:09 1.4 °C 0.4 °C 1003.6 hPa Calm   1.6 km/h 93% 0 mm 0 W/m2
23:14 1.4 °C 0.4 °C 1003.6 hPa Calm     93% 0 mm 0 W/m2
23:19 1.4 °C 0.4 °C 1003.9 hPa Calm     93% 0 mm 0 W/m2
23:24 1.3 °C 0.3 °C 1003.9 hPa WNW 0.3 km/h 1.6 km/h 93% 0 mm 0 W/m2
23:29 1.3 °C 0.4 °C 1003.9 hPa WNW 2.3 km/h 4.8 km/h 93.4% 0 mm 0 W/m2
23:34 1.6 °C 0.6 °C 1003.9 hPa WNW 2.7 km/h 8 km/h 93.4% 0 mm 0 W/m2
23:39 1.9 °C 1 °C 1003.6 hPa WNW 4 km/h 8 km/h 93.8% 0 mm 0 W/m2
23:43 2.2 °C 1.3 °C 1003.6 hPa WNW 2.4 km/h 8 km/h 94% 0 mm 0 W/m2
23:49 2.4 °C 1.5 °C 1003.6 hPa West 2.1 km/h 4.8 km/h 94% 0 mm 0 W/m2
23:54 2.5 °C 1.6 °C 1003.6 hPa West 0.6 km/h 4.8 km/h 94% 0 mm 0 W/m2
23:59 2.5 °C 1.6 °C 1003.3 hPa West 1.3 km/h 4.8 km/h 94% 0 mm 0 W/m2
Bath Spa Weather
Compliments of Weather Underground - 2 mb